Strongstown, Pennsylvania
Current Conditions -  °F | °C
As of 3:35 AM on Thursday 29 Jan 2015 (Local Time) from KIDI Reporting Station
Overcast Overcast  
Wind Chill: -4°   Ceiling: 9000
Heat Index:   Visibility: 10mi
Dew Point:   Wind: 8mph
Humidity: 92%   Direction: 110°ESE
Pressure: 30.23"   Gusts: NA
Location:  40.55°N, 78.92°W
Report Text: KIDI 290835Z AUTO 11007KT 10SM BKN090 OVC120 M13/M14 A3023 RMK A01
Loading
Personal Weather Stations






























Interactive Weather Map New forecast layout! Learn more

10-Day Weather Forecast

Advertisements
Track Severe Weather on mobile